EPMO

Details ICAO EPMO (WMI)
Name MODLIN
Region Poland
Timezone Europe/Warsaw (UTC+2.0)
Plans Departing 300
Arriving 281
Stats Elevation 340 ft / 104 m (AMSL)
Location 52.451200° 20.651900°
Runways 1
Magnetic Variation 5.953° E
Sunrise 2019-05-26 02:28:47 UTC / 2019-05-26 04:28:47 Local
Sunset 2019-05-26 18:42:54 UTC / 2019-05-26 20:42:54 Local
Advertisement - Login to hide

Runways

ID Width Length Bearing (true/mag) Surface Threshold Overrun Markings Lighting
08 197 ft / 60 m 8,204 ft / 2,501 m 81.22° / 75.27° ASPHALT 0 ft / 0 m 0 ft / 0 m PREC-APP CENTERLINE
26 197 ft / 60 m 8,204 ft / 2,501 m 261.25° / 255.30° ASPHALT 0 ft / 0 m 0 ft / 0 m PREC-APP CENTERLINE

Map

Weather


0- 5 10 15 20 25 30 35+ Temperature / °C

Clouds and Precipitation
Forecast for 2019-05-26 12:00 UTC. Updated 4 hours ago

Ground ~20,000 ft ~40,000 ft Winds

METAR

EPMO 261330Z 26015KT CAVOK 20/08 Q1011

TAF

TAF EPMO 261130Z 2612/2712 26013KT 9999 SCT045 PROB40 TEMPO 2612/2616 27015G25KT BECMG 2618/2620 20005KT BECMG 2707/2709 24015KT

Frequencies

Recorded 120.32 MHz Warszawa Information
Approach 128.80 MHz Warszawa Approach
Tower 123.92 MHz Modlin Tower
Warning: Do not use this data for real-world aviation or navigation. No guarantee of current accuracy is given.